Terminal Aerodrome Forecast
Issued by NWS

Home | Current Version | Previous Version | Text Only | Print | Product List | Glossary On
Versions: 1 2 3 4 5 6 7 8 9 10 11 12 13 14 15 16 17 18 19 20 21 22 23 24 25 26 27 28 29 30 31 32 33 34 35 36 37 38 39 40 41 42 43 44 45
000
FTAK31 PAFA 302330
TAFAQT
TAF
PAQT 302330Z 0100/0124 28011KT P6SM -RA OVC014
      TEMPO 0100/0103 1SM -SHSNRA BR BKN006
     FM010300 27015KT 4SM -SHSN BR OVC015
     FM010700 27010KT 5SM BR OVC007
     FM011400 23006KT 2SM -SHSN BR OVC007
     FM011900 24011KT 3SM -SHSNRA SCT007 OVC015=

USA.gov is the U.S. government's official web portal to all federal, state and local government web resources and services.